Briefing drone pour Prigonrieux

Rechercher une autre localisation

Conditions de vol :


Nous sommes le : Dimanche 09 mai 2021
Il est 02:12 UTC (04:12 LT)

Lever de soleil : 04:10 UTC (06:10 LT)
Coucher de soleil : 19:39 UTC (21:39 LT)

Météo

L'essentiel des conditions de vol

VIGILANCE MÉTÉO FRANCE - Dordogne (24)
Vigilance Jaune : Orages
CARTE TEMSI
CARTES DES FRONTS
METAR de LFBE
LFBE 090200Z AUTO 11010KT 080V150 CAVOK 18/13 Q1004 TEMPO 14015G25KT

Date d'émission: 09/05/2021
Heure d'émission: 02:00 UTC
Vent: 110° (variable du 080° au 150°) pour 10 KT (19 km/h)
Visibilité horizontale: > 10 km
Plafond : Plafond et visibilité OK (CAVOK)
Température: 18 °C
Point de rosée: 13 °C
Humidité: 73%
Pression (QNH): 1004 hPa

Temporairement:

Vent : 140° pour 15 KT (28 km/h) rafales pour 25 KT (46 km/h)
TAF de LFBE
LFBE 082000Z 0820/0912 CNL

Conditions prévues :

Heure d'émission : Bulletin éffectué le 08 à 20:00 UTC
Prévision : Valide du 08 a 20:00 UTC au 09 a 12:00 UTC
Nuages : à 0ft (0 m)
WEBCAM POUR PRIGONRIEUX

Réglementation

Voler en sécurité

CARTES AERONAUTIQUE 1/500.000
CARTES VAC (LFBE)
SUP AIP




Chargement des AIP...
NOTAM (PRIGONRIEUX + Terrain à proximité / FIR )




Chargement des NOTAMS...
CONTACT PREFECTURE 24


Avertissement : Les données mises à disposition sont indicatives. Oxygène Drone ne pourra être tenu responsable de dégâts causés aux biens et aux personnes.